Flight Track Log - Related Links

Times and Time Zones

All times are in EDT time to prevent confusion due to time zone crossing. See the N6452K flight status page for this flight to view local times or setup timezone preferences in your user account.

Time Position Orientation Groundspeed Altitude Reporting Facility
EDT Latitude Longitude Course Direction KTS MPH feet Rate Location/Type
Wed 02:15:36 PM 39.7089 -82.6322 190° South 98 113 2,700  Level Indianapolis Center
Wed 02:16:27 PM 39.6908 -82.6383 195° South 95 109 3,300 639 Climbing Indianapolis Center
Wed 02:17:38 PM 39.6631 -82.6494 197° South 86 99 4,000 387 Climbing Indianapolis Center
Wed 02:18:31 PM 39.6436 -82.6561 195° South 90 104 4,100 52 Climbing Indianapolis Center
Wed 02:19:33 PM 39.6050 -82.6681 193° South 120 138 4,100  Level Indianapolis Center
Wed 02:20:35 PM 39.5647 -82.6814 194° South 127 146 4,100  Level Indianapolis Center
Wed 02:21:00 PM 39.5309 -82.6904 190° South  Level FlightAware Approximate
Wed 02:21:37 PM 39.5289 -82.6864 186° South 127 146 4,100  Level Indianapolis Center
Wed 02:22:39 PM 39.4922 -82.6911 186° South 130 150 4,100 -48 Level Indianapolis Center
Wed 02:23:41 PM 39.4572 -82.6953 185° South 127 146 4,000  Descending Indianapolis Center
Wed 02:24:43 PM 39.4219 -82.7044 191° South 127 146 4,100 48 Climbing Indianapolis Center
Wed 02:25:45 PM 39.3875 -82.7203 200° South 130 150 4,100 -48 Level Indianapolis Center
Wed 02:26:47 PM 39.3519 -82.7306 193° South 131 151 4,000 -49 Descending Indianapolis Center
Wed 02:27:48 PM 39.3103 -82.7417 192° South 131 151 4,000 49 Level Indianapolis Center
Wed 02:28:50 PM 39.2747 -82.7439 183° South 129 148 4,100 48 Climbing Indianapolis Center
Wed 02:29:53 PM 39.2406 -82.7561 195° South 126 145 4,100 -48 Level Indianapolis Center
Wed 02:30:55 PM 39.2033 -82.7572 181° South 133 153 4,000 -48 Descending Indianapolis Center
Wed 02:31:57 PM 39.1692 -82.7628 187° South 131 151 4,000 48 Level Indianapolis Center
Wed 02:32:59 PM 39.1344 -82.7764 197° South 130 150 4,100 48 Climbing Indianapolis Center
Wed 02:34:01 PM 39.0925 -82.7911 195° South 131 151 4,100 -48 Level Indianapolis Center
Wed 02:35:03 PM 39.0558 -82.7989 189° South 133 153 4,000  Descending Indianapolis Center
Wed 02:36:05 PM 39.0214 -82.7967 177° South 129 148 4,100  Climbing Indianapolis Center
Wed 02:37:07 PM 38.9894 -82.8169 206° Southwest 133 153 4,000 -290 Descending Indianapolis Center
Wed 02:38:09 PM 38.9531 -82.8153 178° South 130 150 3,500 -339 Descending Indianapolis Center
Wed 02:39:11 PM 38.9169 -82.8108 175° South 132 152 3,300 -97 Descending Indianapolis Center
Wed 02:40:13 PM 38.8792 -82.7969 164° South 122 140 3,300 -48 Level Indianapolis Center
Wed 02:41:15 PM 38.8456 -82.7881 168° South 123 142 3,200 48 Descending Indianapolis Center
Wed 02:42:17 PM 38.8144 -82.7764 164° South 120 138 3,400 48 Climbing Indianapolis Center
Wed 02:43:19 PM 38.7808 -82.7731 176° South 120 138 3,300 -48 Descending Indianapolis Center
Wed 02:44:21 PM 38.7483 -82.7622 165° South 121 139 3,300 48 Level Indianapolis Center
Wed 02:45:23 PM 38.7158 -82.7511 165° South 120 138 3,400  Climbing Indianapolis Center
Wed 02:46:25 PM 38.6839 -82.7406 166° South 104 120 3,300 -97 Descending Indianapolis Center
Wed 02:47:27 PM 38.6592 -82.7389 177° South 93 107 3,200 48 Descending Indianapolis Center
Wed 02:48:29 PM 38.6356 -82.7322 168° South 93 107 3,400 -48 Climbing Indianapolis Center
Wed 02:49:31 PM 38.6364 -82.7736 271° West 98 113 3,100 -192 Descending Indianapolis Center
Wed 02:50:34 PM 38.6325 -82.8078 262° West 98 113 3,000 -48 Descending Indianapolis Center
Wed 02:51:36 PM 38.6386 -82.8400 284° West 96 110 3,000 -97 Level Indianapolis Center
Wed 02:52:38 PM 38.6631 -82.8331 13° North 90 104 2,800 -194 Descending Indianapolis Center
Wed 02:53:40 PM 38.6872 -82.8358 355° North 85 98 2,600 -48 Descending Indianapolis Center
Wed 02:54:42 PM 38.7131 -82.8381 356° North 82 94 2,700  Climbing Indianapolis Center
Wed 02:55:44 PM 38.7364 -82.8408 355° North 82 94 2,600 -145 Descending Indianapolis Center
Wed 02:56:46 PM 38.7581 -82.8406 North 81 93 2,400 -194 Descending Indianapolis Center

Login

Don't have an account? Register now (free) for customized features, flight alerts, and more!